sensor_id;sensor_type;location;lat;lon;timestamp;P1;durP1;ratioP1;P2;durP2;ratioP2
60610;SDS011;46439;51.164;13.572;2023-11-19T00:00:13;7.40;;;5.30;;
60610;SDS011;46439;51.164;13.572;2023-11-19T00:02:42;8.20;;;5.60;;
60610;SDS011;46439;51.164;13.572;2023-11-19T00:05:11;9.60;;;5.90;;
60610;SDS011;46439;51.164;13.572;2023-11-19T00:07:40;9.70;;;6.10;;
60610;SDS011;46439;51.164;13.572;2023-11-19T00:10:09;11.00;;;6.70;;
60610;SDS011;46439;51.164;13.572;2023-11-19T00:12:39;10.20;;;6.30;;
60610;SDS011;46439;51.164;13.572;2023-11-19T00:15:09;8.20;;;5.50;;
60610;SDS011;46439;51.164;13.572;2023-11-19T00:17:38;9.20;;;6.10;;
60610;SDS011;46439;51.164;13.572;2023-11-19T00:20:12;9.60;;;5.80;;
60610;SDS011;46439;51.164;13.572;2023-11-19T00:22:41;12.00;;;6.40;;
60610;SDS011;46439;51.164;13.572;2023-11-19T00:25:10;11.90;;;6.30;;
60610;SDS011;46439;51.164;13.572;2023-11-19T00:27:39;10.70;;;6.70;;
60610;SDS011;46439;51.164;13.572;2023-11-19T00:30:13;10.70;;;6.30;;
60610;SDS011;46439;51.164;13.572;2023-11-19T00:32:43;11.60;;;6.80;;
60610;SDS011;46439;51.164;13.572;2023-11-19T00:35:12;11.30;;;6.90;;
60610;SDS011;46439;51.164;13.572;2023-11-19T00:37:41;10.20;;;7.10;;
60610;SDS011;46439;51.164;13.572;2023-11-19T00:40:11;10.30;;;7.60;;
60610;SDS011;46439;51.164;13.572;2023-11-19T00:42:40;11.20;;;8.00;;
60610;SDS011;46439;51.164;13.572;2023-11-19T00:45:10;10.60;;;6.80;;
60610;SDS011;46439;51.164;13.572;2023-11-19T00:47:39;12.60;;;7.40;;
60610;SDS011;46439;51.164;13.572;2023-11-19T00:50:09;10.70;;;6.80;;
60610;SDS011;46439;51.164;13.572;2023-11-19T00:52:39;10.30;;;6.80;;
60610;SDS011;46439;51.164;13.572;2023-11-19T00:55:07;11.60;;;7.90;;
60610;SDS011;46439;51.164;13.572;2023-11-19T00:57:36;11.10;;;6.80;;
60610;SDS011;46439;51.164;13.572;2023-11-19T01:00:06;10.90;;;7.60;;
60610;SDS011;46439;51.164;13.572;2023-11-19T01:02:45;11.30;;;8.20;;
60610;SDS011;46439;51.164;13.572;2023-11-19T01:05:14;12.10;;;7.60;;
60610;SDS011;46439;51.164;13.572;2023-11-19T01:07:44;11.70;;;7.70;;
60610;SDS011;46439;51.164;13.572;2023-11-19T01:10:14;13.20;;;8.10;;
60610;SDS011;46439;51.164;13.572;2023-11-19T01:12:42;12.70;;;8.00;;
60610;SDS011;46439;51.164;13.572;2023-11-19T01:15:11;11.80;;;7.50;;
60610;SDS011;46439;51.164;13.572;2023-11-19T01:17:40;11.30;;;7.50;;
60610;SDS011;46439;51.164;13.572;2023-11-19T01:20:11;10.80;;;7.60;;
60610;SDS011;46439;51.164;13.572;2023-11-19T01:22:40;11.40;;;7.50;;
60610;SDS011;46439;51.164;13.572;2023-11-19T01:25:09;12.30;;;7.70;;
60610;SDS011;46439;51.164;13.572;2023-11-19T01:27:37;10.60;;;7.10;;
60610;SDS011;46439;51.164;13.572;2023-11-19T01:30:08;9.70;;;6.20;;
60610;SDS011;46439;51.164;13.572;2023-11-19T01:32:39;9.70;;;7.00;;
60610;SDS011;46439;51.164;13.572;2023-11-19T01:35:08;11.50;;;6.90;;
60610;SDS011;46439;51.164;13.572;2023-11-19T01:37:37;10.80;;;7.10;;
60610;SDS011;46439;51.164;13.572;2023-11-19T01:40:06;11.10;;;7.90;;
60610;SDS011;46439;51.164;13.572;2023-11-19T01:42:38;11.30;;;7.30;;
60610;SDS011;46439;51.164;13.572;2023-11-19T01:45:08;9.30;;;6.80;;
60610;SDS011;46439;51.164;13.572;2023-11-19T01:47:46;10.90;;;7.40;;
60610;SDS011;46439;51.164;13.572;2023-11-19T01:50:15;9.70;;;6.60;;
60610;SDS011;46439;51.164;13.572;2023-11-19T01:52:44;9.00;;;6.10;;
60610;SDS011;46439;51.164;13.572;2023-11-19T01:55:13;10.30;;;6.80;;
60610;SDS011;46439;51.164;13.572;2023-11-19T01:57:42;11.30;;;6.70;;
60610;SDS011;46439;51.164;13.572;2023-11-19T02:00:12;8.50;;;5.60;;
60610;SDS011;46439;51.164;13.572;2023-11-19T02:02:42;9.40;;;6.00;;
60610;SDS011;46439;51.164;13.572;2023-11-19T02:05:12;9.20;;;6.20;;
60610;SDS011;46439;51.164;13.572;2023-11-19T02:07:43;8.80;;;5.70;;
60610;SDS011;46439;51.164;13.572;2023-11-19T02:10:13;9.20;;;5.90;;
60610;SDS011;46439;51.164;13.572;2023-11-19T02:12:43;8.80;;;5.70;;
60610;SDS011;46439;51.164;13.572;2023-11-19T02:15:12;8.40;;;5.70;;
60610;SDS011;46439;51.164;13.572;2023-11-19T02:17:41;9.30;;;5.70;;
60610;SDS011;46439;51.164;13.572;2023-11-19T02:20:10;7.30;;;4.80;;
60610;SDS011;46439;51.164;13.572;2023-11-19T02:22:41;8.50;;;5.30;;
60610;SDS011;46439;51.164;13.572;2023-11-19T02:25:12;8.70;;;5.50;;
60610;SDS011;46439;51.164;13.572;2023-11-19T02:27:51;6.80;;;4.80;;
60610;SDS011;46439;51.164;13.572;2023-11-19T02:30:22;7.70;;;4.60;;
60610;SDS011;46439;51.164;13.572;2023-11-19T02:32:53;6.70;;;4.50;;
60610;SDS011;46439;51.164;13.572;2023-11-19T02:35:25;5.90;;;3.90;;
60610;SDS011;46439;51.164;13.572;2023-11-19T02:37:54;7.60;;;4.50;;
60610;SDS011;46439;51.164;13.572;2023-11-19T02:40:23;6.90;;;4.40;;
60610;SDS011;46439;51.164;13.572;2023-11-19T02:42:51;5.90;;;4.30;;
60610;SDS011;46439;51.164;13.572;2023-11-19T02:45:22;6.20;;;4.00;;
60610;SDS011;46439;51.164;13.572;2023-11-19T02:47:51;6.30;;;3.80;;
60610;SDS011;46439;51.164;13.572;2023-11-19T02:50:21;6.50;;;4.00;;
60610;SDS011;46439;51.164;13.572;2023-11-19T02:52:53;5.60;;;3.90;;
60610;SDS011;46439;51.164;13.572;2023-11-19T02:55:23;6.20;;;4.20;;
60610;SDS011;46439;51.164;13.572;2023-11-19T02:57:54;6.30;;;4.00;;
60610;SDS011;46439;51.164;13.572;2023-11-19T03:00:25;5.60;;;3.80;;
60610;SDS011;46439;51.164;13.572;2023-11-19T03:03:02;4.90;;;3.60;;
60610;SDS011;46439;51.164;13.572;2023-11-19T03:05:46;4.60;;;3.30;;
60610;SDS011;46439;51.164;13.572;2023-11-19T03:08:15;6.80;;;3.70;;
60610;SDS011;46439;51.164;13.572;2023-11-19T03:10:44;4.40;;;3.40;;
60610;SDS011;46439;51.164;13.572;2023-11-19T03:13:13;4.70;;;3.50;;
60610;SDS011;46439;51.164;13.572;2023-11-19T03:15:43;6.40;;;3.60;;
60610;SDS011;46439;51.164;13.572;2023-11-19T03:18:12;5.20;;;3.50;;
60610;SDS011;46439;51.164;13.572;2023-11-19T03:20:41;4.90;;;3.00;;
60610;SDS011;46439;51.164;13.572;2023-11-19T03:23:09;4.80;;;3.30;;
60610;SDS011;46439;51.164;13.572;2023-11-19T03:25:38;4.70;;;3.00;;
60610;SDS011;46439;51.164;13.572;2023-11-19T03:28:07;5.20;;;3.30;;
60610;SDS011;46439;51.164;13.572;2023-11-19T03:30:36;4.20;;;3.10;;
60610;SDS011;46439;51.164;13.572;2023-11-19T03:33:05;4.10;;;3.00;;
60610;SDS011;46439;51.164;13.572;2023-11-19T03:35:33;5.00;;;3.10;;
60610;SDS011;46439;51.164;13.572;2023-11-19T03:38:02;3.80;;;2.80;;
60610;SDS011;46439;51.164;13.572;2023-11-19T03:40:31;5.30;;;3.10;;
60610;SDS011;46439;51.164;13.572;2023-11-19T03:42:59;4.80;;;3.00;;
60610;SDS011;46439;51.164;13.572;2023-11-19T03:45:30;8.70;;;4.30;;
60610;SDS011;46439;51.164;13.572;2023-11-19T03:47:59;2.90;;;2.60;;
60610;SDS011;46439;51.164;13.572;2023-11-19T03:50:28;4.20;;;2.70;;
60610;SDS011;46439;51.164;13.572;2023-11-19T03:52:56;3.70;;;2.70;;
60610;SDS011;46439;51.164;13.572;2023-11-19T03:55:25;3.10;;;2.50;;
60610;SDS011;46439;51.164;13.572;2023-11-19T03:57:53;12.10;;;4.40;;
60610;SDS011;46439;51.164;13.572;2023-11-19T04:00:22;3.90;;;2.60;;
60610;SDS011;46439;51.164;13.572;2023-11-19T04:02:51;3.40;;;2.60;;
60610;SDS011;46439;51.164;13.572;2023-11-19T04:05:20;2.40;;;2.20;;
60610;SDS011;46439;51.164;13.572;2023-11-19T04:07:48;3.10;;;2.50;;
60610;SDS011;46439;51.164;13.572;2023-11-19T04:10:17;4.70;;;2.60;;
60610;SDS011;46439;51.164;13.572;2023-11-19T04:12:46;3.10;;;2.30;;
60610;SDS011;46439;51.164;13.572;2023-11-19T04:15:15;3.10;;;2.30;;
60610;SDS011;46439;51.164;13.572;2023-11-19T04:17:44;4.10;;;2.30;;
60610;SDS011;46439;51.164;13.572;2023-11-19T04:20:13;3.30;;;2.50;;
60610;SDS011;46439;51.164;13.572;2023-11-19T04:22:42;3.60;;;2.30;;
60610;SDS011;46439;51.164;13.572;2023-11-19T04:25:10;3.90;;;2.20;;
60610;SDS011;46439;51.164;13.572;2023-11-19T04:27:40;3.60;;;2.30;;
60610;SDS011;46439;51.164;13.572;2023-11-19T04:30:09;3.60;;;2.40;;
60610;SDS011;46439;51.164;13.572;2023-11-19T04:32:40;4.80;;;2.70;;
60610;SDS011;46439;51.164;13.572;2023-11-19T04:35:09;3.80;;;2.40;;
60610;SDS011;46439;51.164;13.572;2023-11-19T04:37:37;3.40;;;2.30;;
60610;SDS011;46439;51.164;13.572;2023-11-19T04:40:07;3.40;;;2.40;;
60610;SDS011;46439;51.164;13.572;2023-11-19T04:42:36;6.10;;;2.40;;
60610;SDS011;46439;51.164;13.572;2023-11-19T04:45:08;3.00;;;2.20;;
60610;SDS011;46439;51.164;13.572;2023-11-19T04:47:37;4.10;;;2.50;;
60610;SDS011;46439;51.164;13.572;2023-11-19T04:50:06;4.10;;;2.50;;
60610;SDS011;46439;51.164;13.572;2023-11-19T04:52:38;3.10;;;2.40;;
60610;SDS011;46439;51.164;13.572;2023-11-19T04:55:15;3.50;;;2.50;;
60610;SDS011;46439;51.164;13.572;2023-11-19T04:57:44;4.60;;;2.80;;
60610;SDS011;46439;51.164;13.572;2023-11-19T05:00:14;3.20;;;2.20;;
60610;SDS011;46439;51.164;13.572;2023-11-19T05:02:43;3.70;;;2.60;;
60610;SDS011;46439;51.164;13.572;2023-11-19T05:05:12;4.20;;;2.50;;
60610;SDS011;46439;51.164;13.572;2023-11-19T05:07:42;3.80;;;2.60;;
60610;SDS011;46439;51.164;13.572;2023-11-19T05:10:11;2.80;;;2.40;;
60610;SDS011;46439;51.164;13.572;2023-11-19T05:12:39;4.10;;;2.80;;
60610;SDS011;46439;51.164;13.572;2023-11-19T05:15:09;6.20;;;2.90;;
60610;SDS011;46439;51.164;13.572;2023-11-19T05:17:38;4.50;;;2.90;;
60610;SDS011;46439;51.164;13.572;2023-11-19T05:20:08;4.90;;;2.80;;
60610;SDS011;46439;51.164;13.572;2023-11-19T05:22:40;4.70;;;2.90;;
60610;SDS011;46439;51.164;13.572;2023-11-19T05:25:09;5.80;;;3.10;;
60610;SDS011;46439;51.164;13.572;2023-11-19T05:27:38;4.20;;;2.90;;
60610;SDS011;46439;51.164;13.572;2023-11-19T05:30:07;6.10;;;3.40;;
60610;SDS011;46439;51.164;13.572;2023-11-19T05:32:39;5.30;;;3.40;;
60610;SDS011;46439;51.164;13.572;2023-11-19T05:35:08;4.20;;;3.00;;
60610;SDS011;46439;51.164;13.572;2023-11-19T05:37:37;4.60;;;2.90;;
60610;SDS011;46439;51.164;13.572;2023-11-19T05:40:07;11.10;;;3.10;;
60610;SDS011;46439;51.164;13.572;2023-11-19T05:42:41;6.60;;;2.80;;
60610;SDS011;46439;51.164;13.572;2023-11-19T05:45:10;5.70;;;3.30;;
60610;SDS011;46439;51.164;13.572;2023-11-19T05:47:39;3.70;;;2.90;;
60610;SDS011;46439;51.164;13.572;2023-11-19T05:50:09;3.80;;;2.60;;
60610;SDS011;46439;51.164;13.572;2023-11-19T05:52:38;4.30;;;2.50;;
60610;SDS011;46439;51.164;13.572;2023-11-19T05:55:07;4.50;;;2.70;;
60610;SDS011;46439;51.164;13.572;2023-11-19T05:57:36;3.60;;;2.60;;
60610;SDS011;46439;51.164;13.572;2023-11-19T06:00:07;7.60;;;3.00;;
60610;SDS011;46439;51.164;13.572;2023-11-19T06:02:37;3.60;;;2.70;;
60610;SDS011;46439;51.164;13.572;2023-11-19T06:05:06;4.00;;;2.90;;
60610;SDS011;46439;51.164;13.572;2023-11-19T06:07:36;3.90;;;2.90;;
60610;SDS011;46439;51.164;13.572;2023-11-19T06:10:06;4.80;;;3.00;;
60610;SDS011;46439;51.164;13.572;2023-11-19T06:12:36;6.80;;;3.10;;
60610;SDS011;46439;51.164;13.572;2023-11-19T06:15:08;3.90;;;2.80;;
60610;SDS011;46439;51.164;13.572;2023-11-19T06:17:38;5.10;;;2.80;;
60610;SDS011;46439;51.164;13.572;2023-11-19T06:20:07;5.00;;;3.10;;
60610;SDS011;46439;51.164;13.572;2023-11-19T06:22:38;3.50;;;2.60;;
60610;SDS011;46439;51.164;13.572;2023-11-19T06:25:09;4.10;;;2.60;;
60610;SDS011;46439;51.164;13.572;2023-11-19T06:27:38;5.20;;;2.80;;
60610;SDS011;46439;51.164;13.572;2023-11-19T06:30:08;2.80;;;2.40;;
60610;SDS011;46439;51.164;13.572;2023-11-19T06:32:38;3.50;;;2.50;;
60610;SDS011;46439;51.164;13.572;2023-11-19T06:35:07;3.30;;;2.60;;
60610;SDS011;46439;51.164;13.572;2023-11-19T06:37:37;2.40;;;2.20;;
60610;SDS011;46439;51.164;13.572;2023-11-19T06:40:07;3.40;;;2.50;;
60610;SDS011;46439;51.164;13.572;2023-11-19T06:42:38;3.80;;;2.70;;
60610;SDS011;46439;51.164;13.572;2023-11-19T06:45:08;4.20;;;2.60;;
60610;SDS011;46439;51.164;13.572;2023-11-19T06:47:37;3.20;;;2.50;;
60610;SDS011;46439;51.164;13.572;2023-11-19T06:50:06;3.40;;;2.20;;
60610;SDS011;46439;51.164;13.572;2023-11-19T06:52:36;3.80;;;2.40;;
60610;SDS011;46439;51.164;13.572;2023-11-19T06:55:05;3.10;;;2.20;;
60610;SDS011;46439;51.164;13.572;2023-11-19T06:57:35;3.70;;;2.40;;
60610;SDS011;46439;51.164;13.572;2023-11-19T07:00:05;3.10;;;2.50;;
60610;SDS011;46439;51.164;13.572;2023-11-19T07:05:03;4.60;;;2.80;;
60610;SDS011;46439;51.164;13.572;2023-11-19T07:07:32;6.70;;;2.80;;
60610;SDS011;46439;51.164;13.572;2023-11-19T07:10:02;5.20;;;3.40;;
60610;SDS011;46439;51.164;13.572;2023-11-19T07:12:35;4.80;;;3.30;;
60610;SDS011;46439;51.164;13.572;2023-11-19T07:15:05;3.60;;;2.70;;
60610;SDS011;46439;51.164;13.572;2023-11-19T07:17:35;3.90;;;2.80;;
60610;SDS011;46439;51.164;13.572;2023-11-19T07:20:07;3.70;;;2.60;;
60610;SDS011;46439;51.164;13.572;2023-11-19T07:22:40;5.70;;;3.20;;
60610;SDS011;46439;51.164;13.572;2023-11-19T07:27:39;5.50;;;3.00;;
60610;SDS011;46439;51.164;13.572;2023-11-19T07:30:08;3.50;;;2.70;;
60610;SDS011;46439;51.164;13.572;2023-11-19T07:32:37;5.50;;;3.10;;
60610;SDS011;46439;51.164;13.572;2023-11-19T07:35:06;5.70;;;3.00;;
60610;SDS011;46439;51.164;13.572;2023-11-19T07:37:35;5.30;;;3.80;;
60610;SDS011;46439;51.164;13.572;2023-11-19T07:40:12;6.20;;;4.00;;
60610;SDS011;46439;51.164;13.572;2023-11-19T07:42:41;7.00;;;4.60;;
60610;SDS011;46439;51.164;13.572;2023-11-19T07:45:10;7.80;;;4.80;;
60610;SDS011;46439;51.164;13.572;2023-11-19T07:47:38;8.00;;;4.80;;
60610;SDS011;46439;51.164;13.572;2023-11-19T07:50:14;5.60;;;3.80;;
60610;SDS011;46439;51.164;13.572;2023-11-19T07:52:47;7.30;;;4.30;;
60610;SDS011;46439;51.164;13.572;2023-11-19T07:55:21;6.40;;;3.70;;
60610;SDS011;46439;51.164;13.572;2023-11-19T07:57:50;5.00;;;3.60;;
60610;SDS011;46439;51.164;13.572;2023-11-19T08:00:19;5.20;;;3.90;;
60610;SDS011;46439;51.164;13.572;2023-11-19T08:02:48;6.30;;;4.30;;
60610;SDS011;46439;51.164;13.572;2023-11-19T08:05:20;5.80;;;3.60;;
60610;SDS011;46439;51.164;13.572;2023-11-19T08:07:51;5.40;;;3.40;;
60610;SDS011;46439;51.164;13.572;2023-11-19T08:10:20;4.50;;;2.80;;
60610;SDS011;46439;51.164;13.572;2023-11-19T08:12:49;4.70;;;3.00;;
60610;SDS011;46439;51.164;13.572;2023-11-19T08:15:18;3.80;;;2.40;;
60610;SDS011;46439;51.164;13.572;2023-11-19T08:17:46;4.10;;;2.30;;
60610;SDS011;46439;51.164;13.572;2023-11-19T08:20:16;0.90;;;0.90;;
60610;SDS011;46439;51.164;13.572;2023-11-19T08:22:44;2.00;;;1.20;;
60610;SDS011;46439;51.164;13.572;2023-11-19T08:25:13;0.90;;;0.80;;
60610;SDS011;46439;51.164;13.572;2023-11-19T08:27:42;1.50;;;1.00;;
60610;SDS011;46439;51.164;13.572;2023-11-19T08:30:11;1.40;;;0.80;;
60610;SDS011;46439;51.164;13.572;2023-11-19T08:32:41;1.30;;;0.70;;
60610;SDS011;46439;51.164;13.572;2023-11-19T08:35:10;1.50;;;1.00;;
60610;SDS011;46439;51.164;13.572;2023-11-19T08:37:38;2.30;;;0.90;;
60610;SDS011;46439;51.164;13.572;2023-11-19T08:40:08;1.80;;;0.90;;
60610;SDS011;46439;51.164;13.572;2023-11-19T08:42:38;1.30;;;0.90;;
60610;SDS011;46439;51.164;13.572;2023-11-19T08:45:08;1.10;;;0.80;;
60610;SDS011;46439;51.164;13.572;2023-11-19T08:47:37;3.70;;;1.20;;
60610;SDS011;46439;51.164;13.572;2023-11-19T08:50:07;1.10;;;0.90;;
60610;SDS011;46439;51.164;13.572;2023-11-19T08:52:36;0.90;;;0.80;;
60610;SDS011;46439;51.164;13.572;2023-11-19T08:55:06;2.60;;;1.10;;
60610;SDS011;46439;51.164;13.572;2023-11-19T08:57:38;1.60;;;1.10;;
60610;SDS011;46439;51.164;13.572;2023-11-19T09:02:36;3.20;;;1.40;;
60610;SDS011;46439;51.164;13.572;2023-11-19T09:05:05;1.70;;;0.90;;
60610;SDS011;46439;51.164;13.572;2023-11-19T09:07:35;1.90;;;1.00;;
60610;SDS011;46439;51.164;13.572;2023-11-19T09:10:04;2.30;;;1.00;;
60610;SDS011;46439;51.164;13.572;2023-11-19T09:12:35;1.50;;;0.90;;
60610;SDS011;46439;51.164;13.572;2023-11-19T09:15:05;1.10;;;0.80;;
60610;SDS011;46439;51.164;13.572;2023-11-19T09:17:37;1.70;;;1.00;;
60610;SDS011;46439;51.164;13.572;2023-11-19T09:20:06;1.80;;;1.40;;
60610;SDS011;46439;51.164;13.572;2023-11-19T09:22:39;1.40;;;1.10;;
60610;SDS011;46439;51.164;13.572;2023-11-19T09:25:08;3.10;;;1.20;;
60610;SDS011;46439;51.164;13.572;2023-11-19T09:27:37;2.30;;;1.10;;
60610;SDS011;46439;51.164;13.572;2023-11-19T09:30:07;3.30;;;1.30;;
60610;SDS011;46439;51.164;13.572;2023-11-19T09:32:37;3.50;;;1.00;;
60610;SDS011;46439;51.164;13.572;2023-11-19T09:35:06;3.70;;;1.30;;
60610;SDS011;46439;51.164;13.572;2023-11-19T09:37:40;3.00;;;1.00;;
60610;SDS011;46439;51.164;13.572;2023-11-19T09:40:10;1.70;;;1.00;;
60610;SDS011;46439;51.164;13.572;2023-11-19T09:42:40;4.40;;;1.40;;
60610;SDS011;46439;51.164;13.572;2023-11-19T09:45:13;2.00;;;1.20;;
60610;SDS011;46439;51.164;13.572;2023-11-19T09:47:44;1.80;;;1.40;;
60610;SDS011;46439;51.164;13.572;2023-11-19T09:50:14;5.10;;;1.20;;
60610;SDS011;46439;51.164;13.572;2023-11-19T09:52:47;3.40;;;1.30;;
60610;SDS011;46439;51.164;13.572;2023-11-19T09:55:16;3.50;;;1.30;;
60610;SDS011;46439;51.164;13.572;2023-11-19T09:57:45;2.80;;;1.20;;
60610;SDS011;46439;51.164;13.572;2023-11-19T10:00:16;5.80;;;1.50;;
60610;SDS011;46439;51.164;13.572;2023-11-19T10:02:47;3.50;;;1.40;;
60610;SDS011;46439;51.164;13.572;2023-11-19T10:05:17;4.60;;;1.50;;
60610;SDS011;46439;51.164;13.572;2023-11-19T10:07:47;4.20;;;1.50;;
60610;SDS011;46439;51.164;13.572;2023-11-19T10:10:16;3.80;;;1.30;;
60610;SDS011;46439;51.164;13.572;2023-11-19T10:12:46;2.30;;;1.10;;
60610;SDS011;46439;51.164;13.572;2023-11-19T10:15:19;3.50;;;1.30;;
60610;SDS011;46439;51.164;13.572;2023-11-19T10:17:51;5.30;;;1.60;;
60610;SDS011;46439;51.164;13.572;2023-11-19T10:20:21;3.00;;;1.30;;
60610;SDS011;46439;51.164;13.572;2023-11-19T10:22:53;2.80;;;1.10;;
60610;SDS011;46439;51.164;13.572;2023-11-19T10:25:23;4.30;;;1.30;;
60610;SDS011;46439;51.164;13.572;2023-11-19T10:27:53;5.20;;;1.40;;
60610;SDS011;46439;51.164;13.572;2023-11-19T10:30:23;3.50;;;1.10;;
60610;SDS011;46439;51.164;13.572;2023-11-19T10:35:51;4.00;;;1.70;;
60610;SDS011;46439;51.164;13.572;2023-11-19T10:38:21;2.30;;;1.40;;
60610;SDS011;46439;51.164;13.572;2023-11-19T10:40:50;2.40;;;1.10;;
60610;SDS011;46439;51.164;13.572;2023-11-19T10:43:20;3.00;;;1.40;;
60610;SDS011;46439;51.164;13.572;2023-11-19T10:45:49;3.20;;;1.40;;
60610;SDS011;46439;51.164;13.572;2023-11-19T10:48:19;1.40;;;1.20;;
60610;SDS011;46439;51.164;13.572;2023-11-19T10:50:53;4.10;;;1.60;;
60610;SDS011;46439;51.164;13.572;2023-11-19T10:53:22;4.80;;;1.70;;
60610;SDS011;46439;51.164;13.572;2023-11-19T10:55:52;3.40;;;1.40;;
60610;SDS011;46439;51.164;13.572;2023-11-19T10:58:25;2.70;;;1.20;;
60610;SDS011;46439;51.164;13.572;2023-11-19T11:01:01;3.50;;;1.60;;
60610;SDS011;46439;51.164;13.572;2023-11-19T11:03:37;3.00;;;1.40;;
60610;SDS011;46439;51.164;13.572;2023-11-19T11:06:08;4.10;;;1.40;;
60610;SDS011;46439;51.164;13.572;2023-11-19T11:08:37;3.20;;;1.70;;
60610;SDS011;46439;51.164;13.572;2023-11-19T11:11:07;2.80;;;1.40;;
60610;SDS011;46439;51.164;13.572;2023-11-19T11:13:40;5.90;;;3.00;;
60610;SDS011;46439;51.164;13.572;2023-11-19T11:16:11;3.80;;;1.70;;
60610;SDS011;46439;51.164;13.572;2023-11-19T11:18:41;5.50;;;2.40;;
60610;SDS011;46439;51.164;13.572;2023-11-19T11:21:12;5.50;;;1.40;;
60610;SDS011;46439;51.164;13.572;2023-11-19T11:23:52;5.10;;;2.90;;
60610;SDS011;46439;51.164;13.572;2023-11-19T11:26:46;6.20;;;3.10;;
60610;SDS011;46439;51.164;13.572;2023-11-19T11:29:31;7.20;;;2.90;;
60610;SDS011;46439;51.164;13.572;2023-11-19T11:32:12;4.60;;;1.40;;
60610;SDS011;46439;51.164;13.572;2023-11-19T11:34:58;5.20;;;1.90;;
60610;SDS011;46439;51.164;13.572;2023-11-19T11:37:44;1.60;;;1.50;;
60610;SDS011;46439;51.164;13.572;2023-11-19T11:40:17;3.00;;;1.80;;
60610;SDS011;46439;51.164;13.572;2023-11-19T11:42:46;4.10;;;1.50;;
60610;SDS011;46439;51.164;13.572;2023-11-19T11:45:15;3.00;;;1.40;;
60610;SDS011;46439;51.164;13.572;2023-11-19T11:50:46;5.60;;;2.00;;
60610;SDS011;46439;51.164;13.572;2023-11-19T11:53:20;7.80;;;2.50;;
60610;SDS011;46439;51.164;13.572;2023-11-19T11:55:54;7.40;;;2.60;;
60610;SDS011;46439;51.164;13.572;2023-11-19T11:58:29;13.00;;;4.70;;
60610;SDS011;46439;51.164;13.572;2023-11-19T12:01:01;13.80;;;4.80;;
60610;SDS011;46439;51.164;13.572;2023-11-19T12:03:32;3.60;;;1.70;;
60610;SDS011;46439;51.164;13.572;2023-11-19T12:06:01;7.50;;;2.60;;
60610;SDS011;46439;51.164;13.572;2023-11-19T12:08:30;5.90;;;2.30;;
60610;SDS011;46439;51.164;13.572;2023-11-19T12:11:01;5.70;;;2.20;;
60610;SDS011;46439;51.164;13.572;2023-11-19T12:16:19;4.30;;;1.40;;
60610;SDS011;46439;51.164;13.572;2023-11-19T12:18:48;6.70;;;2.00;;
60610;SDS011;46439;51.164;13.572;2023-11-19T12:21:30;6.60;;;3.30;;
60610;SDS011;46439;51.164;13.572;2023-11-19T12:24:00;8.80;;;3.20;;
60610;SDS011;46439;51.164;13.572;2023-11-19T12:26:40;10.00;;;3.20;;
60610;SDS011;46439;51.164;13.572;2023-11-19T12:29:09;8.40;;;2.40;;
60610;SDS011;46439;51.164;13.572;2023-11-19T12:31:38;6.00;;;2.00;;
60610;SDS011;46439;51.164;13.572;2023-11-19T12:34:10;5.80;;;1.80;;
60610;SDS011;46439;51.164;13.572;2023-11-19T12:36:40;7.40;;;1.90;;
60610;SDS011;46439;51.164;13.572;2023-11-19T12:39:10;4.20;;;2.00;;
60610;SDS011;46439;51.164;13.572;2023-11-19T12:41:54;9.20;;;1.90;;
60610;SDS011;46439;51.164;13.572;2023-11-19T12:44:25;6.60;;;1.90;;
60610;SDS011;46439;51.164;13.572;2023-11-19T12:47:01;6.50;;;2.20;;
60610;SDS011;46439;51.164;13.572;2023-11-19T12:49:32;6.50;;;2.60;;
60610;SDS011;46439;51.164;13.572;2023-11-19T12:52:01;8.50;;;2.00;;
60610;SDS011;46439;51.164;13.572;2023-11-19T12:54:38;9.80;;;2.60;;
60610;SDS011;46439;51.164;13.572;2023-11-19T12:57:07;7.90;;;2.20;;
60610;SDS011;46439;51.164;13.572;2023-11-19T12:59:35;7.00;;;2.00;;
60610;SDS011;46439;51.164;13.572;2023-11-19T13:02:04;12.10;;;3.50;;
60610;SDS011;46439;51.164;13.572;2023-11-19T13:04:33;6.80;;;1.90;;
60610;SDS011;46439;51.164;13.572;2023-11-19T13:07:02;17.10;;;6.70;;
60610;SDS011;46439;51.164;13.572;2023-11-19T13:09:31;18.20;;;7.10;;
60610;SDS011;46439;51.164;13.572;2023-11-19T13:12:11;10.90;;;3.20;;
60610;SDS011;46439;51.164;13.572;2023-11-19T13:14:41;8.50;;;2.70;;
60610;SDS011;46439;51.164;13.572;2023-11-19T13:17:14;9.70;;;2.40;;
60610;SDS011;46439;51.164;13.572;2023-11-19T13:19:43;9.40;;;2.10;;
60610;SDS011;46439;51.164;13.572;2023-11-19T13:22:13;8.30;;;2.30;;
60610;SDS011;46439;51.164;13.572;2023-11-19T13:24:42;8.40;;;2.50;;
60610;SDS011;46439;51.164;13.572;2023-11-19T13:27:11;9.90;;;3.20;;
60610;SDS011;46439;51.164;13.572;2023-11-19T13:29:41;13.50;;;4.30;;
60610;SDS011;46439;51.164;13.572;2023-11-19T13:32:10;14.30;;;5.20;;
60610;SDS011;46439;51.164;13.572;2023-11-19T13:34:39;16.00;;;6.40;;
60610;SDS011;46439;51.164;13.572;2023-11-19T13:37:08;14.40;;;7.00;;
60610;SDS011;46439;51.164;13.572;2023-11-19T13:39:37;13.60;;;5.60;;
60610;SDS011;46439;51.164;13.572;2023-11-19T13:42:10;11.90;;;3.90;;
60610;SDS011;46439;51.164;13.572;2023-11-19T13:44:38;18.20;;;8.50;;
60610;SDS011;46439;51.164;13.572;2023-11-19T13:47:07;13.70;;;4.70;;
60610;SDS011;46439;51.164;13.572;2023-11-19T13:49:37;10.10;;;2.80;;
60610;SDS011;46439;51.164;13.572;2023-11-19T13:52:06;11.40;;;2.40;;
60610;SDS011;46439;51.164;13.572;2023-11-19T13:54:36;11.60;;;2.80;;
60610;SDS011;46439;51.164;13.572;2023-11-19T13:57:05;11.30;;;3.00;;
60610;SDS011;46439;51.164;13.572;2023-11-19T13:59:37;9.20;;;2.90;;
60610;SDS011;46439;51.164;13.572;2023-11-19T14:02:08;8.30;;;2.30;;
60610;SDS011;46439;51.164;13.572;2023-11-19T14:04:36;11.00;;;2.70;;
60610;SDS011;46439;51.164;13.572;2023-11-19T14:07:06;15.90;;;2.90;;
60610;SDS011;46439;51.164;13.572;2023-11-19T14:09:35;15.20;;;4.80;;
60610;SDS011;46439;51.164;13.572;2023-11-19T14:12:04;13.50;;;2.80;;
60610;SDS011;46439;51.164;13.572;2023-11-19T14:14:33;16.20;;;4.30;;
60610;SDS011;46439;51.164;13.572;2023-11-19T14:17:03;11.50;;;2.80;;
60610;SDS011;46439;51.164;13.572;2023-11-19T14:19:32;11.60;;;2.80;;
60610;SDS011;46439;51.164;13.572;2023-11-19T14:22:00;13.10;;;3.50;;
60610;SDS011;46439;51.164;13.572;2023-11-19T14:24:29;12.40;;;3.40;;
60610;SDS011;46439;51.164;13.572;2023-11-19T14:26:58;10.40;;;2.80;;
60610;SDS011;46439;51.164;13.572;2023-11-19T14:29:27;9.60;;;3.20;;
60610;SDS011;46439;51.164;13.572;2023-11-19T14:31:57;12.40;;;3.10;;
60610;SDS011;46439;51.164;13.572;2023-11-19T14:34:26;13.00;;;3.80;;
60610;SDS011;46439;51.164;13.572;2023-11-19T14:36:55;11.90;;;3.00;;
60610;SDS011;46439;51.164;13.572;2023-11-19T14:39:24;10.90;;;3.40;;
60610;SDS011;46439;51.164;13.572;2023-11-19T14:41:53;13.40;;;4.50;;
60610;SDS011;46439;51.164;13.572;2023-11-19T14:44:25;14.60;;;4.30;;
60610;SDS011;46439;51.164;13.572;2023-11-19T14:46:53;13.00;;;3.50;;
60610;SDS011;46439;51.164;13.572;2023-11-19T14:49:22;17.70;;;5.00;;
60610;SDS011;46439;51.164;13.572;2023-11-19T14:51:51;45.40;;;23.00;;
60610;SDS011;46439;51.164;13.572;2023-11-19T14:54:20;18.70;;;7.10;;
60610;SDS011;46439;51.164;13.572;2023-11-19T14:56:57;19.70;;;9.20;;
60610;SDS011;46439;51.164;13.572;2023-11-19T14:59:27;14.30;;;4.50;;
60610;SDS011;46439;51.164;13.572;2023-11-19T15:01:56;12.50;;;3.70;;
60610;SDS011;46439;51.164;13.572;2023-11-19T15:04:24;11.90;;;4.70;;